createdAt,value
2023-09-29T00:00:57.103Z,9.32
2023-09-29T00:03:16.876Z,9.50
2023-09-29T00:05:20.157Z,10.50
2023-09-29T00:07:22.718Z,10.45
2023-09-29T00:09:25.059Z,10.82
2023-09-29T00:11:28.449Z,10.38
2023-09-29T00:13:30.574Z,8.95
2023-09-29T00:15:34.785Z,10.07
2023-09-29T00:17:37.163Z,9.15
2023-09-29T00:19:39.353Z,10.30
2023-09-29T00:21:41.776Z,10.10
2023-09-29T00:23:44.101Z,11.00
2023-09-29T00:25:46.575Z,10.65
2023-09-29T00:27:49.193Z,10.02
2023-09-29T00:29:53.026Z,10.13
2023-09-29T00:31:55.632Z,10.52
2023-09-29T00:33:57.801Z,11.45
2023-09-29T00:36:03.689Z,11.23
2023-09-29T00:38:06.827Z,12.27
2023-09-29T00:40:13.840Z,11.20
2023-09-29T00:42:16.202Z,11.10
2023-09-29T00:44:20.181Z,11.10
2023-09-29T00:46:22.473Z,12.45
2023-09-29T00:48:24.931Z,12.10
2023-09-29T00:50:31.185Z,12.77
2023-09-29T00:52:33.845Z,11.80
2023-09-29T00:54:37.615Z,10.88
2023-09-29T00:56:40.779Z,11.57
2023-09-29T00:58:43.455Z,12.02
2023-09-29T01:00:46.908Z,12.02
2023-09-29T01:02:50.261Z,10.85
2023-09-29T01:04:52.457Z,10.98
2023-09-29T01:06:54.626Z,12.73
2023-09-29T01:09:00.659Z,11.07
2023-09-29T01:11:07.021Z,10.70
2023-09-29T01:13:10.763Z,11.00
2023-09-29T01:15:14.398Z,11.13
2023-09-29T01:17:17.158Z,11.57
2023-09-29T01:19:21.561Z,10.23
2023-09-29T01:21:23.709Z,10.73
2023-09-29T01:23:34.369Z,11.43
2023-09-29T01:25:37.678Z,10.75
2023-09-29T01:27:40.921Z,11.45
2023-09-29T01:29:45.242Z,10.20
2023-09-29T01:31:47.718Z,11.43
2023-09-29T01:33:49.822Z,10.82
2023-09-29T01:35:52.527Z,11.57
2023-09-29T01:37:56.121Z,9.57
2023-09-29T01:39:58.670Z,10.27
2023-09-29T01:42:01.344Z,10.90
2023-09-29T01:44:03.943Z,10.52
2023-09-29T01:46:06.070Z,10.65
2023-09-29T01:48:08.763Z,11.60
2023-09-29T01:50:12.234Z,10.82
2023-09-29T01:52:14.375Z,10.85
2023-09-29T01:54:16.838Z,11.20
2023-09-29T01:56:18.984Z,11.07
2023-09-29T01:58:21.371Z,11.38
2023-09-29T02:00:27.055Z,11.73
2023-09-29T02:02:30.390Z,10.55
2023-09-29T02:04:32.615Z,10.48
2023-09-29T02:06:35.056Z,11.07
2023-09-29T02:08:37.412Z,11.27
2023-09-29T02:10:39.811Z,10.07
2023-09-29T02:12:50.499Z,10.48
2023-09-29T02:14:52.996Z,10.85
2023-09-29T02:16:55.398Z,11.88
2023-09-29T02:18:58.297Z,10.05
2023-09-29T02:21:00.809Z,12.50
2023-09-29T02:23:03.612Z,10.48
2023-09-29T02:25:06.274Z,11.27
2023-09-29T02:27:08.340Z,10.10
2023-09-29T02:29:10.903Z,11.57
2023-09-29T02:31:14.229Z,10.52
2023-09-29T02:33:17.702Z,10.50
2023-09-29T02:35:20.293Z,10.82
2023-09-29T02:37:23.184Z,10.80
2023-09-29T02:39:25.304Z,10.23
2023-09-29T02:41:27.696Z,12.05
2023-09-29T02:43:34.084Z,10.57
2023-09-29T02:45:39.309Z,10.32
2023-09-29T02:47:43.442Z,11.75
2023-09-29T02:49:46.282Z,11.10
2023-09-29T02:51:48.365Z,11.00
2023-09-29T02:53:51.950Z,10.48
2023-09-29T02:55:54.310Z,11.15
2023-09-29T02:57:57.122Z,10.35
2023-09-29T02:59:59.263Z,11.07
2023-09-29T03:02:07.056Z,9.40
2023-09-29T03:04:11.117Z,12.15
2023-09-29T03:06:25.309Z,12.45
2023-09-29T03:08:28.501Z,12.05
2023-09-29T03:10:30.822Z,11.65
2023-09-29T03:12:33.301Z,11.63
2023-09-29T03:14:35.563Z,11.25
2023-09-29T03:16:38.672Z,11.43
2023-09-29T03:18:41.977Z,11.23
2023-09-29T03:20:44.203Z,11.13
2023-09-29T03:22:47.648Z,12.07
2023-09-29T03:24:49.772Z,11.15
2023-09-29T03:26:52.038Z,10.25
2023-09-29T03:28:57.618Z,11.50
2023-09-29T03:31:01.406Z,11.55
2023-09-29T03:33:05.603Z,10.55
2023-09-29T03:35:10.239Z,9.95
2023-09-29T03:37:13.544Z,10.73
2023-09-29T03:39:16.159Z,11.70
2023-09-29T03:41:18.559Z,12.30
2023-09-29T03:43:22.646Z,10.77
2023-09-29T03:45:26.569Z,12.30
2023-09-29T03:47:29.211Z,10.93
2023-09-29T03:49:32.860Z,10.90
2023-09-29T03:51:35.249Z,10.25
2023-09-29T03:53:39.572Z,11.23
2023-09-29T03:55:41.982Z,10.57
2023-09-29T03:57:45.851Z,12.73
2023-09-29T03:59:48.583Z,10.73
2023-09-29T04:01:50.684Z,10.52
2023-09-29T04:03:53.344Z,12.23
2023-09-29T04:05:55.558Z,10.38
2023-09-29T04:07:58.186Z,12.95
2023-09-29T04:10:00.398Z,10.82
2023-09-29T04:12:02.825Z,11.73
2023-09-29T04:14:05.012Z,13.55
2023-09-29T04:16:08.188Z,12.05
2023-09-29T04:18:10.323Z,13.77
2023-09-29T04:20:13.767Z,12.50
2023-09-29T04:22:15.911Z,11.75
2023-09-29T04:24:18.376Z,12.07
2023-09-29T04:26:21.730Z,12.07
2023-09-29T04:28:24.514Z,13.07
2023-09-29T04:30:26.948Z,12.23
2023-09-29T04:32:29.507Z,11.40
2023-09-29T04:34:32.270Z,11.15
2023-09-29T04:36:35.007Z,12.75
2023-09-29T04:38:38.070Z,12.20
2023-09-29T04:40:41.243Z,13.20
2023-09-29T04:42:43.401Z,12.45
2023-09-29T04:44:46.160Z,12.25
2023-09-29T04:46:48.677Z,12.23
2023-09-29T04:48:54.776Z,12.80
2023-09-29T04:50:57.414Z,11.60
2023-09-29T04:52:59.896Z,12.63
2023-09-29T04:55:02.177Z,10.77
2023-09-29T04:57:04.693Z,11.75
2023-09-29T04:59:07.795Z,11.35
2023-09-29T05:01:17.453Z,10.25
2023-09-29T05:03:20.002Z,10.52
2023-09-29T05:05:22.579Z,11.70
2023-09-29T05:07:24.750Z,11.13
2023-09-29T05:09:27.124Z,10.23
2023-09-29T05:11:31.799Z,10.18
2023-09-29T05:13:35.795Z,10.88
2023-09-29T05:15:38.101Z,10.18
2023-09-29T05:17:50.729Z,9.43
2023-09-29T05:19:53.881Z,9.70
2023-09-29T05:21:56.318Z,11.13
2023-09-29T05:23:58.499Z,8.68
2023-09-29T05:26:03.856Z,9.02
2023-09-29T05:28:06.198Z,8.80
2023-09-29T05:30:09.150Z,9.10
2023-09-29T05:32:11.371Z,7.72
2023-09-29T05:34:13.868Z,8.48
2023-09-29T05:36:16.000Z,8.80
2023-09-29T05:38:19.804Z,8.15
2023-09-29T05:40:21.945Z,8.00
2023-09-29T05:42:40.841Z,8.88
2023-09-29T05:44:49.131Z,8.32
2023-09-29T05:46:51.746Z,8.82
2023-09-29T05:48:53.990Z,8.63
2023-09-29T05:50:56.844Z,10.65
2023-09-29T05:53:10.480Z,11.30
2023-09-29T05:55:16.611Z,9.63
2023-09-29T05:57:21.366Z,8.90
2023-09-29T05:59:23.860Z,8.60
2023-09-29T06:01:28.901Z,9.20
2023-09-29T06:03:31.890Z,8.85
2023-09-29T06:05:34.143Z,10.18
2023-09-29T06:07:36.576Z,8.55
2023-09-29T06:09:38.928Z,8.93
2023-09-29T06:11:41.448Z,8.32
2023-09-29T06:13:43.714Z,9.48
2023-09-29T06:15:46.077Z,9.27
2023-09-29T06:17:48.366Z,9.32
2023-09-29T06:19:52.105Z,10.05
2023-09-29T06:21:54.319Z,9.20
2023-09-29T06:23:57.023Z,9.68
2023-09-29T06:26:00.644Z,8.30
2023-09-29T06:28:03.130Z,8.40
2023-09-29T06:30:05.985Z,8.63
2023-09-29T06:32:12.104Z,9.65
2023-09-29T06:34:14.569Z,8.85
2023-09-29T06:36:17.025Z,8.50
2023-09-29T06:38:19.296Z,9.57
2023-09-29T06:40:22.043Z,8.90
2023-09-29T06:42:24.241Z,9.27
2023-09-29T06:44:26.842Z,8.25
2023-09-29T06:46:29.097Z,9.43
2023-09-29T06:48:31.720Z,8.90
2023-09-29T06:50:33.971Z,8.07
2023-09-29T06:52:36.390Z,9.38
2023-09-29T06:54:38.524Z,8.95
2023-09-29T06:56:41.049Z,8.32
2023-09-29T06:58:43.362Z,8.02
2023-09-29T07:00:46.114Z,8.85
2023-09-29T07:02:48.353Z,8.15
2023-09-29T07:04:51.023Z,8.57
2023-09-29T07:06:53.173Z,8.15
2023-09-29T07:08:55.805Z,8.20
2023-09-29T07:10:58.955Z,8.20
2023-09-29T07:13:01.994Z,7.65
2023-09-29T07:15:04.882Z,8.10
2023-09-29T07:17:08.938Z,8.73
2023-09-29T07:19:13.788Z,9.23
2023-09-29T07:21:16.713Z,8.45
2023-09-29T07:23:20.452Z,9.00
2023-09-29T07:25:24.338Z,8.68
2023-09-29T07:27:27.710Z,9.75
2023-09-29T07:29:30.124Z,9.15
2023-09-29T07:31:48.710Z,9.32
2023-09-29T07:33:51.597Z,8.82
2023-09-29T07:35:54.104Z,9.20
2023-09-29T07:37:56.639Z,9.70
2023-09-29T07:39:59.297Z,10.15
2023-09-29T07:42:02.105Z,9.48
2023-09-29T07:44:04.390Z,8.18
2023-09-29T07:46:07.298Z,8.77
2023-09-29T07:48:10.609Z,9.60
2023-09-29T07:50:13.823Z,8.07
2023-09-29T07:52:16.124Z,7.80
2023-09-29T07:54:20.237Z,8.80
2023-09-29T07:56:23.412Z,7.32
2023-09-29T07:58:25.942Z,8.63
2023-09-29T08:00:28.119Z,8.18
2023-09-29T08:02:30.785Z,7.88
2023-09-29T08:04:33.085Z,8.55
2023-09-29T08:06:36.574Z,7.85
2023-09-29T08:08:38.729Z,7.53
2023-09-29T08:10:41.437Z,7.50
2023-09-29T08:12:43.741Z,8.02
2023-09-29T08:14:46.332Z,6.93
2023-09-29T08:16:48.628Z,7.25
2023-09-29T08:18:51.126Z,7.70
2023-09-29T08:20:55.037Z,7.82
2023-09-29T08:22:57.706Z,7.13
2023-09-29T08:24:59.942Z,6.32
2023-09-29T08:27:02.528Z,6.43
2023-09-29T08:29:05.167Z,7.10
2023-09-29T08:31:17.351Z,6.22
2023-09-29T08:33:28.374Z,6.13
2023-09-29T08:35:38.699Z,6.93
2023-09-29T08:37:42.475Z,6.35
2023-09-29T08:39:44.908Z,6.88
2023-09-29T08:41:56.066Z,6.85
2023-09-29T08:44:07.341Z,6.78
2023-09-29T08:46:15.960Z,6.82
2023-09-29T08:48:19.844Z,8.07
2023-09-29T08:50:25.108Z,6.70
2023-09-29T08:52:31.485Z,7.05
2023-09-29T08:54:34.157Z,6.25
2023-09-29T08:56:37.235Z,6.55
2023-09-29T08:58:39.755Z,6.55
2023-09-29T09:00:44.015Z,6.05
2023-09-29T09:02:48.688Z,6.82
2023-09-29T09:04:51.847Z,6.80
2023-09-29T09:06:56.307Z,6.63
2023-09-29T09:08:59.030Z,7.20
2023-09-29T09:11:02.937Z,6.40
2023-09-29T09:13:08.790Z,6.07
2023-09-29T09:15:15.490Z,6.88
2023-09-29T09:17:18.061Z,6.85
2023-09-29T09:19:22.320Z,5.75
2023-09-29T09:21:34.250Z,5.80
2023-09-29T09:23:39.279Z,6.50
2023-09-29T09:25:44.593Z,6.80
2023-09-29T09:27:50.301Z,6.20
2023-09-29T09:29:52.576Z,5.70
2023-09-29T09:31:57.357Z,6.65
2023-09-29T09:34:00.006Z,5.85
2023-09-29T09:36:08.163Z,6.47
2023-09-29T09:38:10.556Z,7.28
2023-09-29T09:40:14.877Z,6.20
2023-09-29T09:42:17.821Z,6.20
2023-09-29T09:44:21.505Z,6.05
2023-09-29T09:46:24.247Z,5.90
2023-09-29T09:48:28.571Z,5.45
2023-09-29T09:50:32.823Z,5.75
2023-09-29T09:52:35.835Z,5.22
2023-09-29T09:54:47.762Z,5.18
2023-09-29T09:56:59.901Z,5.55
2023-09-29T09:59:07.001Z,5.53
2023-09-29T10:01:11.790Z,5.40
2023-09-29T10:03:18.049Z,5.45
2023-09-29T10:05:25.405Z,5.00
2023-09-29T10:07:27.481Z,4.88
2023-09-29T10:09:45.204Z,5.00
2023-09-29T10:11:57.887Z,5.32
2023-09-29T10:14:09.320Z,5.00
2023-09-29T10:16:23.211Z,4.90
2023-09-29T10:18:25.882Z,4.82
2023-09-29T10:20:32.532Z,4.57
2023-09-29T10:22:35.321Z,5.57
2023-09-29T10:24:37.864Z,4.95
2023-09-29T10:26:49.862Z,6.10
2023-09-29T10:29:10.407Z,5.95
2023-09-29T10:31:16.350Z,5.75
2023-09-29T10:33:19.060Z,5.35
2023-09-29T10:35:21.838Z,5.50
2023-09-29T10:37:27.343Z,5.68
2023-09-29T10:39:31.253Z,4.78
2023-09-29T10:41:37.144Z,5.25
2023-09-29T10:43:43.622Z,5.43
2023-09-29T10:45:46.240Z,4.65
2023-09-29T10:47:49.091Z,5.22
2023-09-29T10:49:51.732Z,5.07
2023-09-29T10:51:54.289Z,5.32
2023-09-29T10:53:58.634Z,4.97
2023-09-29T10:56:01.463Z,4.85
2023-09-29T10:58:05.591Z,3.92
2023-09-29T11:00:09.147Z,5.05
2023-09-29T11:02:12.828Z,4.20
2023-09-29T11:04:15.992Z,4.90
2023-09-29T11:06:21.401Z,3.95
2023-09-29T11:08:35.356Z,4.38
2023-09-29T11:10:37.682Z,4.97
2023-09-29T11:12:45.246Z,4.22
2023-09-29T11:14:47.893Z,4.80
2023-09-29T11:16:59.699Z,4.47
2023-09-29T11:19:12.850Z,4.10
2023-09-29T11:21:15.879Z,4.18
2023-09-29T11:23:19.321Z,4.10
2023-09-29T11:25:21.993Z,5.00
2023-09-29T11:27:26.534Z,4.25
2023-09-29T11:29:31.858Z,4.30
2023-09-29T11:31:34.232Z,4.15
2023-09-29T11:33:36.695Z,4.47
2023-09-29T11:35:40.004Z,4.80
2023-09-29T11:37:45.152Z,4.18
2023-09-29T11:39:47.496Z,4.43
2023-09-29T11:41:50.331Z,3.95
2023-09-29T11:43:52.604Z,4.18
2023-09-29T11:45:55.114Z,3.97
2023-09-29T11:47:57.409Z,3.50
2023-09-29T11:49:59.896Z,4.25
2023-09-29T11:52:02.753Z,3.92
2023-09-29T11:54:07.560Z,3.83
2023-09-29T11:56:09.837Z,4.05
2023-09-29T11:58:12.656Z,3.45
2023-09-29T12:00:16.185Z,4.05
2023-09-29T12:02:18.897Z,4.10
2023-09-29T12:04:21.066Z,4.38
2023-09-29T12:06:23.622Z,4.28
2023-09-29T12:08:26.345Z,4.28
2023-09-29T12:10:29.898Z,4.05
2023-09-29T12:12:33.726Z,3.83
2023-09-29T12:14:36.251Z,3.90
2023-09-29T12:16:40.872Z,3.75
2023-09-29T12:18:43.903Z,3.30
2023-09-29T12:20:46.325Z,4.10
2023-09-29T12:22:49.190Z,3.65
2023-09-29T12:24:51.949Z,3.65
2023-09-29T12:26:54.793Z,3.92
2023-09-29T12:28:57.030Z,3.78
2023-09-29T12:30:59.465Z,3.92
2023-09-29T12:33:02.118Z,3.78
2023-09-29T12:35:06.073Z,3.38
2023-09-29T12:37:09.447Z,3.40
2023-09-29T12:39:13.739Z,3.78
2023-09-29T12:41:16.914Z,3.40
2023-09-29T12:43:19.506Z,3.17
2023-09-29T12:45:23.006Z,3.72
2023-09-29T12:47:28.279Z,4.00
2023-09-29T12:49:30.662Z,3.83
2023-09-29T12:51:37.212Z,3.17
2023-09-29T12:53:45.120Z,3.20
2023-09-29T12:55:47.682Z,3.05
2023-09-29T12:57:50.132Z,3.22
2023-09-29T12:59:53.356Z,3.10
2023-09-29T13:01:56.864Z,3.22
2023-09-29T13:03:59.809Z,2.88
2023-09-29T13:06:04.718Z,3.83
2023-09-29T13:08:08.502Z,3.47
2023-09-29T13:10:11.215Z,3.08
2023-09-29T13:12:28.417Z,3.70
2023-09-29T13:14:31.494Z,3.13
2023-09-29T13:16:34.279Z,3.03
2023-09-29T13:18:37.246Z,3.38
2023-09-29T13:20:45.221Z,3.20
2023-09-29T13:22:47.638Z,2.78
2023-09-29T13:24:50.114Z,3.50
2023-09-29T13:26:52.267Z,3.88
2023-09-29T13:28:54.787Z,3.20
2023-09-29T13:30:58.461Z,3.10
2023-09-29T13:33:02.751Z,3.92
2023-09-29T13:35:05.584Z,3.20
2023-09-29T13:37:08.310Z,3.58
2023-09-29T13:39:10.968Z,2.78
2023-09-29T13:41:13.612Z,2.70
2023-09-29T13:43:16.368Z,3.17
2023-09-29T13:45:19.212Z,3.28
2023-09-29T13:47:21.343Z,3.55
2023-09-29T13:49:24.888Z,3.20
2023-09-29T13:51:27.674Z,3.22
2023-09-29T13:53:30.249Z,3.38
2023-09-29T13:55:34.028Z,3.50
2023-09-29T13:57:36.968Z,3.28
2023-09-29T13:59:39.115Z,4.07
2023-09-29T14:01:43.519Z,4.10
2023-09-29T14:03:45.921Z,3.30
2023-09-29T14:05:48.995Z,3.55
2023-09-29T14:07:54.260Z,3.25
2023-09-29T14:09:57.123Z,3.78
2023-09-29T14:11:59.549Z,3.20
2023-09-29T14:14:02.381Z,3.90
2023-09-29T14:16:06.636Z,2.72
2023-09-29T14:18:09.315Z,3.38
2023-09-29T14:20:12.887Z,3.30
2023-09-29T14:22:15.392Z,2.95
2023-09-29T14:24:19.482Z,3.17
2023-09-29T14:26:23.776Z,3.35
2023-09-29T14:28:26.389Z,3.08
2023-09-29T14:30:30.927Z,2.72
2023-09-29T14:32:34.706Z,3.15
2023-09-29T14:34:37.349Z,3.00
2023-09-29T14:36:39.699Z,3.22
2023-09-29T14:38:43.639Z,2.95
2023-09-29T14:40:45.815Z,3.28
2023-09-29T14:42:49.975Z,2.63
2023-09-29T14:44:52.269Z,3.30
2023-09-29T14:46:54.952Z,3.03
2023-09-29T14:48:57.657Z,3.50
2023-09-29T14:51:04.093Z,3.30
2023-09-29T14:53:06.600Z,3.28
2023-09-29T14:55:09.714Z,3.65
2023-09-29T14:57:12.576Z,3.50
2023-09-29T14:59:19.438Z,3.53
2023-09-29T15:01:21.724Z,3.28
2023-09-29T15:03:24.380Z,4.70
2023-09-29T15:05:27.488Z,3.05
2023-09-29T15:07:30.086Z,3.17
2023-09-29T15:09:32.306Z,2.92
2023-09-29T15:11:36.278Z,3.67
2023-09-29T15:13:41.034Z,3.40
2023-09-29T15:15:44.658Z,2.95
2023-09-29T15:17:47.016Z,3.47
2023-09-29T15:19:49.585Z,3.35
2023-09-29T15:21:52.284Z,3.17
2023-09-29T15:23:57.698Z,3.20
2023-09-29T15:26:00.406Z,3.83
2023-09-29T15:28:03.045Z,3.15
2023-09-29T15:30:08.318Z,3.03
2023-09-29T15:32:10.885Z,3.92
2023-09-29T15:34:13.437Z,3.30
2023-09-29T15:36:16.707Z,3.65
2023-09-29T15:38:21.645Z,3.13
2023-09-29T15:40:25.620Z,3.85
2023-09-29T15:42:27.849Z,3.78
2023-09-29T15:44:30.418Z,4.65
2023-09-29T15:46:32.583Z,3.60
2023-09-29T15:48:37.769Z,3.83
2023-09-29T15:50:40.038Z,4.28
2023-09-29T15:52:42.578Z,3.90
2023-09-29T15:54:44.855Z,4.43
2023-09-29T15:56:48.146Z,4.40
2023-09-29T15:58:50.411Z,4.65
2023-09-29T16:00:54.148Z,3.58
2023-09-29T16:02:56.896Z,4.07
2023-09-29T16:05:00.749Z,4.57
2023-09-29T16:07:05.980Z,4.13
2023-09-29T16:09:09.582Z,4.60
2023-09-29T16:11:12.378Z,4.57
2023-09-29T16:13:16.670Z,5.15
2023-09-29T16:15:20.059Z,5.07
2023-09-29T16:17:22.800Z,5.47
2023-09-29T16:19:24.957Z,5.38
2023-09-29T16:21:27.526Z,5.72
2023-09-29T16:23:30.182Z,4.50
2023-09-29T16:25:33.479Z,5.03
2023-09-29T16:27:35.690Z,5.97
2023-09-29T16:29:38.780Z,5.57
2023-09-29T16:31:41.122Z,5.50
2023-09-29T16:33:45.578Z,5.47
2023-09-29T16:35:48.012Z,5.22
2023-09-29T16:37:50.782Z,4.90
2023-09-29T16:39:52.934Z,4.68
2023-09-29T16:42:00.333Z,4.72
2023-09-29T16:44:02.587Z,4.75
2023-09-29T16:46:06.096Z,4.90
2023-09-29T16:48:08.682Z,5.13
2023-09-29T16:50:11.623Z,6.10
2023-09-29T16:52:13.894Z,4.68
2023-09-29T16:54:20.051Z,5.47
2023-09-29T16:56:27.012Z,5.07
2023-09-29T16:58:30.824Z,7.43
2023-09-29T17:00:57.538Z,5.45
2023-09-29T17:03:03.607Z,6.30
2023-09-29T17:05:09.200Z,7.65
2023-09-29T17:07:13.454Z,6.68
2023-09-29T17:09:17.489Z,8.02
2023-09-29T17:11:20.582Z,6.68
2023-09-29T17:13:22.811Z,6.93
2023-09-29T17:15:26.873Z,7.03
2023-09-29T17:17:29.284Z,7.15
2023-09-29T17:19:31.829Z,7.57
2023-09-29T17:21:34.317Z,7.38
2023-09-29T17:23:37.207Z,6.72
2023-09-29T17:25:40.225Z,6.70
2023-09-29T17:27:42.939Z,6.53
2023-09-29T17:29:45.624Z,7.28
2023-09-29T17:31:49.062Z,7.97
2023-09-29T17:34:12.515Z,6.32
2023-09-29T17:36:15.512Z,8.23
2023-09-29T17:38:19.165Z,8.05
2023-09-29T17:40:21.589Z,7.72
2023-09-29T17:42:23.879Z,7.63
2023-09-29T17:44:26.366Z,8.35
2023-09-29T17:46:28.954Z,12.77
2023-09-29T17:48:42.400Z,10.60
2023-09-29T17:50:48.142Z,12.23
2023-09-29T17:52:51.664Z,13.18
2023-09-29T17:54:53.908Z,13.45
2023-09-29T17:56:56.407Z,12.50
2023-09-29T17:59:02.393Z,13.82
2023-09-29T18:01:05.866Z,15.27
2023-09-29T18:03:08.073Z,15.20
2023-09-29T18:05:16.911Z,14.88
2023-09-29T18:09:27.678Z,16.35
2023-09-29T18:11:30.036Z,17.52
2023-09-29T18:13:36.142Z,16.95
2023-09-29T18:15:40.736Z,17.45
2023-09-29T18:17:43.265Z,17.67
2023-09-29T18:19:47.404Z,18.27
2023-09-29T18:21:50.216Z,18.60
2023-09-29T18:23:52.552Z,19.02
2023-09-29T18:25:57.428Z,19.95
2023-09-29T18:28:02.085Z,19.92
2023-09-29T18:30:10.484Z,18.83
2023-09-29T18:32:15.909Z,16.83
2023-09-29T18:34:19.016Z,17.00
2023-09-29T18:36:23.339Z,19.02
2023-09-29T18:38:25.941Z,18.02
2023-09-29T18:40:30.160Z,18.25
2023-09-29T18:42:32.773Z,17.05
2023-09-29T18:44:35.572Z,17.08
2023-09-29T18:46:38.268Z,15.27
2023-09-29T18:48:49.252Z,17.35
2023-09-29T18:50:51.697Z,16.45
2023-09-29T18:52:56.632Z,15.45
2023-09-29T18:55:03.596Z,16.60
2023-09-29T18:57:09.536Z,15.48
2023-09-29T18:59:15.904Z,15.60
2023-09-29T19:01:18.843Z,15.70
2023-09-29T19:03:25.054Z,14.65
2023-09-29T19:05:28.192Z,15.48
2023-09-29T19:07:30.963Z,15.82
2023-09-29T19:09:33.571Z,14.57
2023-09-29T19:11:37.499Z,15.18
2023-09-29T19:13:40.265Z,14.50
2023-09-29T19:15:43.828Z,14.85
2023-09-29T19:17:47.066Z,15.85
2023-09-29T19:19:49.574Z,16.55
2023-09-29T19:21:51.750Z,16.58
2023-09-29T19:23:57.828Z,15.55
2023-09-29T19:26:01.516Z,17.15
2023-09-29T19:28:04.886Z,15.93
2023-09-29T19:30:08.026Z,15.70
2023-09-29T19:32:13.536Z,14.88
2023-09-29T19:34:15.974Z,15.27
2023-09-29T19:36:18.739Z,16.83
2023-09-29T19:38:21.293Z,15.20
2023-09-29T19:40:24.388Z,16.08
2023-09-29T19:42:26.781Z,15.82
2023-09-29T19:44:29.308Z,15.18
2023-09-29T19:46:51.886Z,15.05
2023-09-29T19:48:56.981Z,16.83
2023-09-29T19:51:06.443Z,16.17
2023-09-29T19:53:10.096Z,15.05
2023-09-29T19:55:16.960Z,14.80
2023-09-29T19:57:20.447Z,15.80
2023-09-29T19:59:22.636Z,15.23
2023-09-29T20:01:25.547Z,14.77
2023-09-29T20:03:28.055Z,15.13
2023-09-29T20:05:30.662Z,15.52
2023-09-29T20:07:32.920Z,16.25
2023-09-29T20:09:35.512Z,15.57
2023-09-29T20:11:38.973Z,16.70
2023-09-29T20:13:42.292Z,16.25
2023-09-29T20:15:44.962Z,15.65
2023-09-29T20:17:47.566Z,14.82
2023-09-29T20:19:49.935Z,13.25
2023-09-29T20:21:55.379Z,15.18
2023-09-29T20:23:59.497Z,14.00
2023-09-29T20:26:02.162Z,15.25
2023-09-29T20:28:06.040Z,14.93
2023-09-29T20:30:10.138Z,15.50
2023-09-29T20:32:12.285Z,15.48
2023-09-29T20:34:15.516Z,13.48
2023-09-29T20:36:17.824Z,14.25
2023-09-29T20:38:20.307Z,13.40
2023-09-29T20:40:22.662Z,15.27
2023-09-29T20:42:25.426Z,14.32
2023-09-29T20:44:27.584Z,15.20
2023-09-29T20:46:30.140Z,14.38
2023-09-29T20:48:32.758Z,14.85
2023-09-29T20:50:35.569Z,14.13
2023-09-29T20:52:38.832Z,14.52
2023-09-29T20:54:41.953Z,14.55
2023-09-29T20:56:44.462Z,14.02
2023-09-29T20:58:47.278Z,12.80
2023-09-29T21:00:49.473Z,15.43
2023-09-29T21:02:51.891Z,14.13
2023-09-29T21:04:54.133Z,13.15
2023-09-29T21:06:56.721Z,14.30
2023-09-29T21:08:59.002Z,13.90
2023-09-29T21:11:02.053Z,15.15
2023-09-29T21:13:04.581Z,13.63
2023-09-29T21:15:07.536Z,13.90
2023-09-29T21:17:09.676Z,13.63
2023-09-29T21:19:13.600Z,14.00
2023-09-29T21:21:15.744Z,14.52
2023-09-29T21:23:18.634Z,14.32
2023-09-29T21:25:22.619Z,13.90
2023-09-29T21:27:25.358Z,13.15
2023-09-29T21:29:27.927Z,14.52
2023-09-29T21:31:30.442Z,15.02
2023-09-29T21:33:32.801Z,14.98
2023-09-29T21:35:36.377Z,13.45
2023-09-29T21:37:39.923Z,15.02
2023-09-29T21:39:42.542Z,13.48
2023-09-29T21:41:45.193Z,13.60
2023-09-29T21:43:47.564Z,14.15
2023-09-29T21:45:49.719Z,14.52
2023-09-29T21:47:52.651Z,13.52
2023-09-29T21:49:54.943Z,14.15
2023-09-29T21:51:57.379Z,13.57
2023-09-29T21:53:59.564Z,14.25
2023-09-29T21:56:02.359Z,13.73
2023-09-29T21:58:05.099Z,14.43
2023-09-29T22:00:18.329Z,13.85
2023-09-29T22:02:21.187Z,13.02
2023-09-29T22:04:24.449Z,15.02
2023-09-29T22:06:26.783Z,14.75
2023-09-29T22:08:39.942Z,14.85
2023-09-29T22:10:49.515Z,13.02
2023-09-29T22:12:52.900Z,15.20
2023-09-29T22:14:55.692Z,14.55
2023-09-29T22:16:59.510Z,14.23
2023-09-29T22:22:09.775Z,14.05
2023-09-29T22:22:35.074Z,16.67
2023-09-29T22:24:13.838Z,14.48
2023-09-29T22:26:32.036Z,13.82
2023-09-29T22:28:51.919Z,14.57
2023-09-29T22:30:57.067Z,12.73
2023-09-29T22:33:01.559Z,13.95
2023-09-29T22:35:04.441Z,14.15
2023-09-29T22:39:44.375Z,13.15
2023-09-29T22:41:49.484Z,14.32
2023-09-29T22:43:52.901Z,13.70
2023-09-29T22:45:55.433Z,14.38
2023-09-29T22:47:58.092Z,13.70
2023-09-29T22:50:02.832Z,14.63
2023-09-29T22:52:06.146Z,13.23
2023-09-29T22:54:09.043Z,12.85
2023-09-29T22:56:13.335Z,13.40
2023-09-29T22:58:16.342Z,13.05
2023-09-29T23:00:18.701Z,12.63
2023-09-29T23:02:21.862Z,14.13
2023-09-29T23:04:24.556Z,13.65
2023-09-29T23:06:27.101Z,13.70
2023-09-29T23:08:30.980Z,13.52
2023-09-29T23:10:33.968Z,13.60
2023-09-29T23:12:36.827Z,13.55
2023-09-29T23:14:39.404Z,12.07
2023-09-29T23:16:41.611Z,12.85
2023-09-29T23:18:44.664Z,13.68
2023-09-29T23:20:47.052Z,13.13
2023-09-29T23:22:49.706Z,12.75
2023-09-29T23:24:52.128Z,13.25
2023-09-29T23:26:54.661Z,12.80
2023-09-29T23:28:56.895Z,13.38
2023-09-29T23:31:00.161Z,12.80
2023-09-29T23:33:03.936Z,13.85
2023-09-29T23:35:06.715Z,13.25
2023-09-29T23:37:08.929Z,13.68
2023-09-29T23:39:12.801Z,14.40
2023-09-29T23:41:15.314Z,13.90
2023-09-29T23:43:18.048Z,14.20
2023-09-29T23:45:20.468Z,13.40
2023-09-29T23:47:22.989Z,13.02
2023-09-29T23:49:26.260Z,12.50
2023-09-29T23:51:28.772Z,12.95
2023-09-29T23:53:31.370Z,12.88
2023-09-29T23:55:34.458Z,13.05
2023-09-29T23:57:37.268Z,12.85
2023-09-29T23:59:39.760Z,12.65
